LiveATC.Net - Listen to live air traffic control over the Internet!


ICAO: ESSB  IATA: BMA   Airport: Stockholm-Bromma Airport
City: Stockholm
Country: Sweden   Continent: Europe
ESSB METAR Weather: ESSB 140650Z AUTO 18005KT 150V220 9999 ///////// 17/17 Q1003
ESSB ADS-B Flight Tracking  (ADSBExchange)
ESSB Flight Activity (FlightAware)

ESSB Tower
Feed Status: UP   Listeners: 0
Listen in your browser - HTML5 player (in browser, HTML5)
Click here to listen with your own player (launches your MP3 player)
Archive Access: ESSB Tower
FacilityFrequency
Bromma Tower118.105

NOTICE

Unauthorized use prohibited. See LiveATC.net Terms of Service


Airport/ARTCC Code
Frequency Search
(e.g., 124.400, 128.75)
Site-wide search
 


Browse Feeds
Top 50 Feeds
HF Oceanic Feeds
Coverage Map
Bad Weather Areas

LiveATC FAQ

Increase Coverage

Contact LiveATC.net
Press Inquiries

LiveATC on iPhone
LiveATC on Android

LiveATC Mobile
(Mobile browser)

ATC Audio Archives
Interesting Recordings

LiveATC Forums


Home Page
About LiveATC.net


Terms of Use
Privacy Policy

AIRMETs/SIGMETs

FAA Airport Status
NAS Status
Arrival Demand


Server Software By:
Icecast.org
Liquidsoap